createdAt,value
2017-08-28T00:04:56.236Z,22.96
2017-08-28T00:07:23.948Z,23.05
2017-08-28T00:09:51.521Z,22.91
2017-08-28T00:12:19.293Z,22.86
2017-08-28T00:14:46.867Z,22.80
2017-08-28T00:17:14.635Z,22.86
2017-08-28T00:19:47.240Z,22.79
2017-08-28T00:22:14.807Z,22.72
2017-08-28T00:24:43.556Z,22.73
2017-08-28T00:27:11.103Z,22.68
2017-08-28T00:29:38.671Z,22.74
2017-08-28T00:32:06.514Z,22.55
2017-08-28T00:34:34.021Z,22.46
2017-08-28T00:37:04.730Z,22.36
2017-08-28T00:39:33.031Z,22.45
2017-08-28T00:42:00.580Z,22.42
2017-08-28T00:44:28.328Z,22.27
2017-08-28T00:46:55.964Z,22.35
2017-08-28T00:49:23.476Z,22.26
2017-08-28T00:51:51.244Z,22.16
2017-08-28T00:54:18.820Z,22.26
2017-08-28T00:56:46.585Z,22.35
2017-08-28T00:59:14.109Z,22.16
2017-08-28T01:01:41.913Z,22.19
2017-08-28T01:04:09.422Z,22.22
2017-08-28T01:06:39.669Z,22.21
2017-08-28T01:09:07.284Z,22.07
2017-08-28T01:11:35.035Z,22.06
2017-08-28T01:14:02.566Z,22.14
2017-08-28T01:16:30.131Z,21.98
2017-08-28T01:18:57.676Z,21.94
2017-08-28T01:21:25.198Z,22.00
2017-08-28T01:23:52.791Z,22.11
2017-08-28T01:26:20.326Z,22.01
2017-08-28T01:28:48.059Z,21.94
2017-08-28T01:31:16.179Z,21.87
2017-08-28T01:33:43.719Z,21.79
2017-08-28T01:36:11.329Z,21.82
2017-08-28T01:38:38.907Z,21.76
2017-08-28T01:41:06.429Z,21.75
2017-08-28T01:43:33.939Z,21.62
2017-08-28T01:46:01.725Z,21.60
2017-08-28T01:48:29.246Z,21.69
2017-08-28T01:50:56.767Z,21.64
2017-08-28T01:53:24.345Z,21.67
2017-08-28T01:55:51.863Z,21.75
2017-08-28T01:58:19.447Z,21.60
2017-08-28T02:00:47.009Z,21.65
2017-08-28T02:03:14.955Z,21.39
2017-08-28T02:05:42.724Z,21.45
2017-08-28T02:08:10.283Z,21.49
2017-08-28T02:10:38.062Z,21.50
2017-08-28T02:13:05.570Z,21.51
2017-08-28T02:15:33.426Z,21.34
2017-08-28T02:18:00.940Z,21.39
2017-08-28T02:20:28.475Z,21.33
2017-08-28T02:22:56.247Z,21.27
2017-08-28T02:25:23.864Z,21.27
2017-08-28T02:27:51.718Z,21.16
2017-08-28T02:30:20.478Z,21.13
2017-08-28T02:32:48.039Z,21.13
2017-08-28T02:35:15.563Z,21.15
2017-08-28T02:37:43.338Z,20.94
2017-08-28T02:40:11.110Z,20.88
2017-08-28T02:42:38.625Z,20.86
2017-08-28T02:45:06.171Z,20.96
2017-08-28T02:47:34.317Z,21.18
2017-08-28T02:50:01.868Z,21.20
2017-08-28T02:52:29.461Z,21.28
2017-08-28T02:54:56.966Z,21.27
2017-08-28T02:57:24.523Z,21.20
2017-08-28T02:59:52.085Z,21.19
2017-08-28T03:02:19.915Z,20.99
2017-08-28T03:04:47.501Z,20.79
2017-08-28T03:07:15.024Z,20.82
2017-08-28T03:09:42.603Z,20.88
2017-08-28T03:12:10.145Z,20.94
2017-08-28T03:14:37.693Z,20.86
2017-08-28T03:17:05.303Z,20.79
2017-08-28T03:19:32.896Z,20.76
2017-08-28T03:22:00.460Z,20.84
2017-08-28T03:24:28.010Z,20.62
2017-08-28T03:26:55.557Z,20.44
2017-08-28T03:29:23.088Z,20.61
2017-08-28T03:31:50.635Z,20.58
2017-08-28T03:34:18.533Z,20.57
2017-08-28T03:36:46.073Z,20.54
2017-08-28T03:39:13.665Z,20.65
2017-08-28T03:41:42.940Z,20.48
2017-08-28T03:44:10.593Z,20.37
2017-08-28T03:46:38.195Z,20.45
2017-08-28T03:49:05.824Z,20.55
2017-08-28T03:51:33.580Z,20.65
2017-08-28T03:54:01.214Z,20.76
2017-08-28T03:56:28.729Z,20.57
2017-08-28T03:58:56.598Z,20.76
2017-08-28T04:01:24.184Z,20.58
2017-08-28T04:03:51.727Z,20.55
2017-08-28T04:06:19.253Z,20.31
2017-08-28T04:08:46.796Z,19.95
2017-08-28T04:11:14.315Z,19.56
2017-08-28T04:13:41.825Z,19.93
2017-08-28T04:16:09.407Z,20.34
2017-08-28T04:18:36.936Z,20.27
2017-08-28T04:21:04.474Z,20.41
2017-08-28T04:23:32.262Z,20.53
2017-08-28T04:26:00.488Z,20.45
2017-08-28T04:28:28.741Z,20.68
2017-08-28T04:30:56.439Z,20.73
2017-08-28T04:33:24.026Z,20.84
2017-08-28T04:35:51.633Z,20.96
2017-08-28T04:38:19.213Z,20.93
2017-08-28T04:40:47.321Z,21.05
2017-08-28T04:43:14.921Z,21.18
2017-08-28T04:45:42.553Z,21.27
2017-08-28T04:48:10.814Z,21.55
2017-08-28T04:50:38.453Z,21.80
2017-08-28T04:53:06.023Z,22.61
2017-08-28T04:55:34.186Z,22.64
2017-08-28T04:58:01.711Z,22.56
2017-08-28T05:00:31.577Z,23.57
2017-08-28T05:02:59.133Z,23.89
2017-08-28T05:05:26.955Z,23.70
2017-08-28T05:07:54.533Z,23.94
2017-08-28T05:10:31.396Z,24.09
2017-08-28T05:12:59.037Z,24.32
2017-08-28T05:15:26.593Z,24.88
2017-08-28T05:17:54.184Z,25.10
2017-08-28T05:20:21.749Z,25.17
2017-08-28T05:22:49.313Z,25.58
2017-08-28T05:25:16.852Z,25.66
2017-08-28T05:27:44.430Z,26.04
2017-08-28T05:30:12.174Z,25.93
2017-08-28T05:32:39.812Z,26.27
2017-08-28T05:35:07.333Z,26.50
2017-08-28T05:37:35.038Z,26.59
2017-08-28T05:40:02.877Z,26.77
2017-08-28T05:42:30.423Z,27.00
2017-08-28T05:44:58.976Z,27.30
2017-08-28T05:47:26.773Z,27.36
2017-08-28T05:49:54.319Z,27.63
2017-08-28T05:52:25.532Z,27.11
2017-08-28T05:55:01.361Z,27.25
2017-08-28T05:57:36.213Z,27.53
2017-08-28T06:00:07.257Z,27.63
2017-08-28T06:02:35.030Z,27.57
2017-08-28T06:05:02.607Z,27.49
2017-08-28T06:07:31.338Z,27.74
2017-08-28T06:10:01.332Z,27.88
2017-08-28T06:12:46.038Z,28.02
2017-08-28T06:15:13.689Z,27.97
2017-08-28T06:17:41.244Z,27.83
2017-08-28T06:20:08.822Z,28.36
2017-08-28T06:22:36.354Z,28.30
2017-08-28T06:25:03.851Z,28.17
2017-08-28T06:27:33.261Z,28.55
2017-08-28T06:30:00.815Z,28.74
2017-08-28T06:32:28.421Z,28.14
2017-08-28T06:34:55.980Z,28.49
2017-08-28T06:37:23.524Z,29.85
2017-08-28T06:39:51.075Z,30.23
2017-08-28T06:42:18.923Z,29.98
2017-08-28T06:44:46.499Z,29.92
2017-08-28T06:47:15.300Z,29.96
2017-08-28T06:49:42.891Z,30.19
2017-08-28T06:52:10.428Z,30.34
2017-08-28T06:54:38.010Z,30.65
2017-08-28T06:57:05.553Z,30.31
2017-08-28T06:59:33.097Z,30.61
2017-08-28T07:02:00.691Z,30.69
2017-08-28T07:04:28.460Z,31.19
2017-08-28T07:06:56.092Z,30.59
2017-08-28T07:09:23.696Z,31.03
2017-08-28T07:11:51.255Z,30.94
2017-08-28T07:14:18.794Z,31.34
2017-08-28T07:16:46.381Z,30.84
2017-08-28T07:19:13.919Z,30.66
2017-08-28T07:21:41.680Z,31.54
2017-08-28T07:24:09.271Z,31.99
2017-08-28T07:26:36.790Z,32.00
2017-08-28T07:29:04.588Z,32.08
2017-08-28T07:31:33.036Z,32.05
2017-08-28T07:34:04.143Z,32.07
2017-08-28T07:36:31.727Z,32.04
2017-08-28T07:38:59.352Z,32.15
2017-08-28T07:41:26.918Z,31.96
2017-08-28T07:43:54.463Z,32.24
2017-08-28T07:46:22.040Z,32.22
2017-08-28T07:48:53.488Z,32.09
2017-08-28T07:54:26.272Z,31.79
2017-08-28T08:00:00.285Z,31.20
2017-08-28T08:02:31.741Z,31.51
2017-08-28T08:05:00.045Z,31.96
2017-08-28T08:07:41.463Z,32.50
2017-08-28T08:17:04.844Z,32.55
2017-08-28T08:19:32.698Z,33.28
2017-08-28T08:22:03.800Z,32.33
2017-08-28T08:30:40.840Z,32.43
2017-08-28T08:37:12.204Z,32.69
2017-08-28T08:39:39.871Z,32.64
2017-08-28T08:42:07.586Z,32.73
2017-08-28T08:44:36.037Z,33.13
2017-08-28T08:47:03.625Z,33.46
2017-08-28T08:49:32.085Z,34.03
2017-08-28T08:51:59.753Z,33.58
2017-08-28T08:54:27.493Z,34.22
2017-08-28T08:56:56.297Z,33.54
2017-08-28T08:59:24.500Z,32.92
2017-08-28T09:01:52.135Z,33.37
2017-08-28T09:04:20.702Z,34.02
2017-08-28T09:06:48.380Z,33.81
2017-08-28T09:09:17.541Z,33.66
2017-08-28T09:11:45.157Z,34.18
2017-08-28T09:14:13.810Z,34.39
2017-08-28T09:16:42.216Z,34.45
2017-08-28T09:19:09.884Z,34.52
2017-08-28T09:21:38.413Z,34.62
2017-08-28T09:24:06.112Z,35.05
2017-08-28T09:26:34.638Z,35.16
2017-08-28T09:29:23.488Z,34.76
2017-08-28T09:32:15.223Z,34.79
2017-08-28T09:37:29.672Z,34.69
2017-08-28T09:43:30.008Z,35.79
2017-08-28T09:45:57.789Z,35.47
2017-08-28T09:48:28.824Z,35.33
2017-08-28T09:50:56.432Z,35.09
2017-08-28T09:53:30.028Z,35.25
2017-08-28T09:56:03.810Z,35.27
2017-08-28T09:58:35.425Z,35.37
2017-08-28T10:01:03.406Z,34.92
2017-08-28T10:03:31.203Z,34.94
2017-08-28T10:05:58.882Z,34.94
2017-08-28T10:08:26.521Z,35.30
2017-08-28T10:10:54.164Z,35.25
2017-08-28T10:13:21.710Z,35.34
2017-08-28T10:15:50.180Z,35.51
2017-08-28T10:18:18.864Z,35.68
2017-08-28T10:20:46.679Z,35.71
2017-08-28T10:23:14.481Z,35.19
2017-08-28T10:25:42.267Z,35.27
2017-08-28T10:28:09.785Z,35.35
2017-08-28T10:30:37.340Z,35.46
2017-08-28T10:33:05.553Z,35.70
2017-08-28T10:35:33.397Z,36.04
2017-08-28T10:38:01.001Z,36.26
2017-08-28T10:40:29.449Z,36.63
2017-08-28T10:42:57.611Z,36.11
2017-08-28T10:45:25.160Z,36.20
2017-08-28T10:48:05.457Z,35.83
2017-08-28T10:50:35.718Z,35.51
2017-08-28T10:53:09.004Z,35.31
2017-08-28T10:55:38.268Z,35.42
2017-08-28T10:58:05.916Z,35.44
2017-08-28T11:00:33.664Z,35.45
2017-08-28T11:03:01.311Z,35.58
2017-08-28T11:05:28.892Z,35.40
2017-08-28T11:07:56.503Z,35.62
2017-08-28T11:10:24.076Z,35.99
2017-08-28T11:12:52.111Z,36.24
2017-08-28T11:15:19.702Z,35.91
2017-08-28T11:17:47.910Z,35.56
2017-08-28T11:20:15.646Z,35.62
2017-08-28T11:22:43.228Z,35.43
2017-08-28T11:25:18.735Z,35.53
2017-08-28T11:27:46.318Z,35.75
2017-08-28T11:30:15.057Z,35.77
2017-08-28T11:32:44.034Z,35.54
2017-08-28T11:35:13.470Z,35.40
2017-08-28T11:37:41.300Z,35.50
2017-08-28T11:40:09.657Z,35.35
2017-08-28T11:42:37.497Z,35.32
2017-08-28T11:45:05.818Z,35.22
2017-08-28T11:47:35.300Z,35.58
2017-08-28T11:50:03.095Z,35.33
2017-08-28T11:52:30.648Z,35.21
2017-08-28T11:54:58.199Z,35.55
2017-08-28T11:57:25.929Z,35.52
2017-08-28T11:59:53.749Z,35.75
2017-08-28T12:02:21.293Z,35.67
2017-08-28T12:04:49.722Z,35.66
2017-08-28T12:07:18.153Z,34.36
2017-08-28T12:09:45.707Z,34.34
2017-08-28T12:12:13.459Z,34.24
2017-08-28T12:14:42.650Z,33.61
2017-08-28T12:17:10.415Z,34.14
2017-08-28T12:19:38.683Z,34.31
2017-08-28T12:22:06.203Z,34.21
2017-08-28T12:24:35.220Z,34.23
2017-08-28T12:27:03.034Z,34.18
2017-08-28T12:29:31.496Z,33.99
2017-08-28T12:31:59.877Z,33.81
2017-08-28T12:34:27.519Z,33.70
2017-08-28T12:36:55.913Z,33.65
2017-08-28T12:39:23.500Z,33.51
2017-08-28T12:41:51.031Z,33.28
2017-08-28T12:44:18.556Z,32.99
2017-08-28T12:46:46.142Z,32.75
2017-08-28T12:49:18.179Z,32.61
2017-08-28T12:51:47.338Z,32.06
2017-08-28T12:54:16.303Z,31.50
2017-08-28T12:56:43.903Z,31.24
2017-08-28T12:59:16.561Z,30.40
2017-08-28T13:01:44.319Z,29.86
2017-08-28T13:04:12.149Z,29.85
2017-08-28T13:06:40.019Z,29.77
2017-08-28T13:09:08.543Z,29.70
2017-08-28T13:11:37.721Z,29.06
2017-08-28T13:14:05.988Z,28.83
2017-08-28T13:16:34.116Z,28.60
2017-08-28T13:19:03.544Z,28.49
2017-08-28T13:21:31.198Z,27.96
2017-08-28T13:23:59.901Z,27.70
2017-08-28T13:26:29.275Z,27.36
2017-08-28T13:28:58.175Z,27.08
2017-08-28T13:31:25.941Z,26.90
2017-08-28T13:33:53.533Z,26.97
2017-08-28T13:36:21.856Z,26.69
2017-08-28T13:38:50.589Z,26.70
2017-08-28T13:41:19.407Z,26.75
2017-08-28T13:43:47.009Z,27.12
2017-08-28T13:46:15.521Z,27.14
2017-08-28T13:48:43.674Z,27.00
2017-08-28T13:51:12.359Z,26.76
2017-08-28T13:53:39.925Z,26.67
2017-08-28T13:56:08.211Z,26.53
2017-08-28T13:58:36.621Z,26.34
2017-08-28T14:01:04.452Z,26.39
2017-08-28T14:03:32.648Z,26.39
2017-08-28T14:06:00.466Z,26.43
2017-08-28T14:08:28.711Z,26.17
2017-08-28T14:10:57.429Z,25.83
2017-08-28T14:13:25.203Z,25.30
2017-08-28T14:15:53.341Z,25.26
2017-08-28T14:18:21.698Z,25.37
2017-08-28T14:21:15.968Z,25.63
2017-08-28T14:23:44.271Z,25.75
2017-08-28T14:26:13.008Z,25.86
2017-08-28T14:28:40.624Z,26.16
2017-08-28T14:31:08.733Z,26.40
2017-08-28T14:33:36.333Z,26.51
2017-08-28T14:36:03.870Z,26.63
2017-08-28T14:38:33.503Z,26.57
2017-08-28T14:41:01.120Z,26.60
2017-08-28T14:43:29.933Z,26.52
2017-08-28T14:45:57.510Z,26.70
2017-08-28T14:48:25.543Z,27.00
2017-08-28T14:50:53.225Z,27.21
2017-08-28T14:53:23.674Z,27.44
2017-08-28T14:55:53.612Z,27.65
2017-08-28T14:58:21.918Z,27.83
2017-08-28T15:00:50.546Z,27.70
2017-08-28T15:03:19.855Z,27.84
2017-08-28T15:05:52.518Z,27.89
2017-08-28T15:15:03.870Z,27.32
2017-08-28T15:17:31.408Z,27.07
2017-08-28T15:19:59.010Z,26.33
2017-08-28T15:22:26.616Z,26.35
2017-08-28T15:24:54.168Z,26.27
2017-08-28T15:27:21.728Z,26.42
2017-08-28T15:29:49.307Z,26.45
2017-08-28T15:32:16.894Z,26.43
2017-08-28T15:34:44.516Z,26.41
2017-08-28T15:37:12.095Z,26.42
2017-08-28T15:39:39.680Z,26.48
2017-08-28T15:42:07.236Z,26.67
2017-08-28T15:44:34.764Z,26.68
2017-08-28T15:47:02.420Z,26.75
2017-08-28T15:49:30.129Z,26.68
2017-08-28T15:52:01.876Z,26.77
2017-08-28T15:54:30.113Z,27.07
2017-08-28T15:56:57.656Z,27.02
2017-08-28T15:59:25.268Z,27.20
2017-08-28T16:01:53.667Z,27.23
2017-08-28T16:04:21.231Z,27.21
2017-08-28T16:06:48.942Z,27.13
2017-08-28T16:09:16.659Z,27.00
2017-08-28T16:11:44.237Z,27.02
2017-08-28T16:14:11.811Z,27.18
2017-08-28T16:16:39.605Z,26.94
2017-08-28T16:19:07.144Z,26.91
2017-08-28T16:21:34.709Z,26.97
2017-08-28T16:24:03.349Z,26.89
2017-08-28T16:26:30.906Z,26.67
2017-08-28T16:28:58.511Z,26.75
2017-08-28T16:31:26.188Z,26.71
2017-08-28T16:33:53.777Z,26.91
2017-08-28T16:36:21.368Z,26.87
2017-08-28T16:38:48.956Z,26.60
2017-08-28T16:41:16.572Z,26.53
2017-08-28T16:43:44.134Z,26.55
2017-08-28T16:46:11.709Z,26.55
2017-08-28T16:48:39.295Z,26.51
2017-08-28T16:51:06.878Z,26.46
2017-08-28T16:53:34.495Z,26.35
2017-08-28T16:56:14.420Z,26.30
2017-08-28T16:58:47.854Z,26.22
2017-08-28T17:01:27.277Z,26.11
2017-08-28T17:04:00.219Z,25.96
2017-08-28T17:09:22.686Z,25.84
2017-08-28T17:11:50.297Z,25.85
2017-08-28T17:14:18.351Z,25.87
2017-08-28T17:16:46.129Z,25.89
2017-08-28T17:19:13.721Z,25.94
2017-08-28T17:21:41.257Z,25.79
2017-08-28T17:24:08.804Z,25.81
2017-08-28T17:26:36.388Z,25.86
2017-08-28T17:29:03.993Z,25.82
2017-08-28T17:31:31.773Z,25.70
2017-08-28T17:33:59.314Z,25.77
2017-08-28T17:36:27.057Z,25.78
2017-08-28T17:38:58.771Z,25.66
2017-08-28T17:41:26.352Z,25.71
2017-08-28T17:43:53.945Z,25.69
2017-08-28T17:46:21.532Z,25.78
2017-08-28T17:48:49.147Z,25.76
2017-08-28T17:51:16.721Z,25.77
2017-08-28T17:53:44.311Z,25.84
2017-08-28T17:56:11.858Z,25.92
2017-08-28T17:58:39.410Z,25.85
2017-08-28T18:01:07.185Z,25.85
2017-08-28T18:03:34.743Z,25.91
2017-08-28T18:06:02.310Z,25.78
2017-08-28T18:08:29.929Z,25.84
2017-08-28T18:10:57.473Z,25.85
2017-08-28T18:13:25.043Z,25.93
2017-08-28T18:15:53.227Z,25.87
2017-08-28T18:18:21.550Z,25.88
2017-08-28T18:20:49.135Z,25.79
2017-08-28T18:23:16.753Z,25.75
2017-08-28T18:25:44.391Z,25.41
2017-08-28T18:28:12.136Z,25.02
2017-08-28T18:30:39.761Z,25.08
2017-08-28T18:33:07.338Z,24.92
2017-08-28T18:35:34.879Z,25.10
2017-08-28T18:38:02.461Z,25.18
2017-08-28T18:40:30.087Z,25.22
2017-08-28T18:42:57.664Z,25.22
2017-08-28T18:45:25.279Z,25.37
2017-08-28T18:47:53.190Z,25.41
2017-08-28T18:50:20.733Z,25.32
2017-08-28T18:52:48.299Z,25.13
2017-08-28T18:55:15.834Z,25.11
2017-08-28T18:57:43.399Z,25.12
2017-08-28T19:00:12.904Z,24.92
2017-08-28T19:02:40.515Z,24.85
2017-08-28T19:05:08.548Z,24.94
2017-08-28T19:07:36.206Z,24.96
2017-08-28T19:10:04.043Z,25.00
2017-08-28T19:12:31.841Z,25.05
2017-08-28T19:14:59.871Z,24.89
2017-08-28T19:17:28.438Z,24.65
2017-08-28T19:19:56.534Z,24.66
2017-08-28T19:22:24.139Z,24.85
2017-08-28T19:24:51.747Z,24.96
2017-08-28T19:27:19.326Z,25.04
2017-08-28T19:29:46.953Z,25.01
2017-08-28T19:39:52.851Z,24.88
2017-08-28T19:46:20.454Z,24.90
2017-08-28T19:48:48.096Z,24.94
2017-08-28T19:51:15.706Z,25.01
2017-08-28T19:53:43.350Z,24.91
2017-08-28T19:56:11.003Z,24.92
2017-08-28T19:58:38.769Z,24.96
2017-08-28T20:01:06.694Z,24.98
2017-08-28T20:03:34.364Z,24.96
2017-08-28T20:06:16.376Z,24.80
2017-08-28T20:08:44.920Z,24.78
2017-08-28T20:11:14.371Z,24.74
2017-08-28T20:13:42.885Z,24.79
2017-08-28T20:16:10.628Z,24.81
2017-08-28T20:18:53.112Z,24.86
2017-08-28T20:21:20.716Z,24.79
2017-08-28T20:23:52.114Z,24.72
2017-08-28T20:26:19.862Z,24.76
2017-08-28T20:28:47.472Z,24.76
2017-08-28T20:31:15.181Z,24.74
2017-08-28T20:33:42.783Z,24.65
2017-08-28T20:36:19.433Z,24.68
2017-08-28T20:38:50.550Z,24.64
2017-08-28T20:41:19.539Z,24.62
2017-08-28T20:43:51.447Z,24.59
2017-08-28T20:46:19.096Z,24.60
2017-08-28T20:49:03.315Z,24.61
2017-08-28T20:54:52.873Z,24.47
2017-08-28T20:57:20.725Z,24.33
2017-08-28T20:59:48.707Z,24.53
2017-08-28T21:02:16.314Z,24.54
2017-08-28T21:04:43.899Z,24.58
2017-08-28T21:07:16.833Z,24.55
2017-08-28T21:09:48.699Z,24.69
2017-08-28T21:12:21.836Z,24.42
2017-08-28T21:14:51.373Z,24.54
2017-08-28T21:17:18.949Z,24.69
2017-08-28T21:19:46.677Z,24.64
2017-08-28T21:22:14.311Z,24.67
2017-08-28T21:24:42.443Z,24.63
2017-08-28T21:28:53.915Z,24.60
2017-08-28T21:31:21.828Z,24.29
2017-08-28T21:33:49.369Z,24.44
2017-08-28T21:36:16.914Z,24.46
2017-08-28T21:38:44.465Z,24.58
2017-08-28T21:41:12.014Z,24.64
2017-08-28T21:43:39.608Z,24.50
2017-08-28T21:46:07.215Z,24.53
2017-08-28T21:48:34.838Z,24.50
2017-08-28T21:51:02.577Z,24.44
2017-08-28T21:53:30.175Z,24.42
2017-08-28T21:55:57.716Z,24.28
2017-08-28T21:58:25.268Z,24.15
2017-08-28T22:00:52.877Z,24.05
2017-08-28T22:03:20.420Z,24.17
2017-08-28T22:05:48.013Z,24.16
2017-08-28T22:08:15.595Z,24.21
2017-08-28T22:10:43.129Z,24.23
2017-08-28T22:13:10.663Z,24.23
2017-08-28T22:15:38.251Z,24.26
2017-08-28T22:18:05.807Z,24.23
2017-08-28T22:20:33.702Z,24.27
2017-08-28T22:23:01.626Z,24.07
2017-08-28T22:25:29.193Z,24.10
2017-08-28T22:27:56.752Z,24.09
2017-08-28T22:30:24.344Z,24.12
2017-08-28T22:32:51.879Z,24.14
2017-08-28T22:35:19.495Z,24.09
2017-08-28T22:37:47.157Z,24.13
2017-08-28T22:40:14.764Z,24.06
2017-08-28T22:42:42.352Z,24.04
2017-08-28T22:45:09.934Z,23.99
2017-08-28T22:47:37.521Z,24.04
2017-08-28T22:50:05.071Z,24.02
2017-08-28T22:52:32.651Z,24.08
2017-08-28T22:55:00.202Z,24.05
2017-08-28T22:57:27.735Z,23.98
2017-08-28T22:59:55.345Z,23.90
2017-08-28T23:02:22.930Z,23.89
2017-08-28T23:04:51.149Z,23.94
2017-08-28T23:07:19.420Z,23.91
2017-08-28T23:09:47.040Z,23.91
2017-08-28T23:12:14.885Z,23.91
2017-08-28T23:14:42.536Z,24.01
2017-08-28T23:17:10.131Z,23.83
2017-08-28T23:19:37.648Z,23.78
2017-08-28T23:22:05.183Z,23.87
2017-08-28T23:24:32.804Z,23.78
2017-08-28T23:27:00.339Z,23.85
2017-08-28T23:29:27.889Z,23.89
2017-08-28T23:31:55.465Z,23.99
2017-08-28T23:34:23.032Z,23.90
2017-08-28T23:36:50.566Z,23.85
2017-08-28T23:39:18.166Z,23.76
2017-08-28T23:41:45.729Z,23.75
2017-08-28T23:44:13.325Z,23.72
2017-08-28T23:46:40.885Z,23.80
2017-08-28T23:49:08.451Z,23.80
2017-08-28T23:51:36.003Z,23.88
2017-08-28T23:54:03.620Z,23.79
2017-08-28T23:56:31.190Z,23.83
2017-08-28T23:58:58.759Z,23.66
